Time;durP1;ratioP1;P1;durP2;ratioP2;P2;SDS_P1;SDS_P2;PMS_P1;PMS_P2;Temp;Humidity;BMP_temperature;BMP_pressure;BME280_temperature;BME280_humidity;BME280_pressure;Samples;Min_cycle;Max_cycle;Signal;HPM_P1;HPM_P2
2022/10/01 00:00:53;;;;;;;1.40;1.10;;;;;;;7.69;100.00;97912.72;15294993;19;20014;-79
2022/10/01 00:06:20;;;;;;;1.38;1.08;;;;;;;7.62;100.00;97911.66;15291992;19;20680;-79
2022/10/01 00:11:47;;;;;;;1.60;1.20;;;;;;;7.60;100.00;97899.41;15299605;19;20028;-79
2022/10/01 00:17:12;;;;;;;1.42;1.10;;;;;;;7.55;100.00;97905.25;15318195;19;20011;-80
2022/10/01 00:22:43;;;;;;;3.58;1.30;;;;;;;7.48;100.00;97901.47;15316512;19;20010;-80
2022/10/01 00:28:10;;;;;;;1.93;1.30;;;;;;;7.48;100.00;97896.13;15314005;19;20039;-80
2022/10/01 00:33:35;;;;;;;1.48;1.20;;;;;;;7.49;100.00;97895.97;15316731;19;20091;-80
2022/10/01 00:39:01;;;;;;;1.63;1.30;;;;;;;7.43;100.00;97877.00;15318633;19;20018;-80
2022/10/01 00:44:41;;;;;;;1.83;1.20;;;;;;;7.40;100.00;97883.50;15307540;19;20014;-79
2022/10/01 00:50:11;;;;;;;2.88;1.50;;;;;;;7.37;100.00;97887.31;15305466;19;20364;-80
2022/10/01 00:55:41;;;;;;;3.87;1.40;;;;;;;7.36;100.00;97891.00;15310866;19;20042;-79
2022/10/01 01:01:08;;;;;;;2.25;1.30;;;;;;;7.33;100.00;97898.50;15312909;19;20019;-79
2022/10/01 01:06:33;;;;;;;2.58;1.50;;;;;;;7.30;100.00;97882.72;15307990;19;20035;-79
2022/10/01 01:12:08;;;;;;;3.83;1.58;;;;;;;7.26;100.00;97882.19;15313995;19;20050;-79
2022/10/01 01:17:42;;;;;;;2.70;1.48;;;;;;;7.21;100.00;97879.16;15351519;19;20015;-78
2022/10/01 01:23:26;;;;;;;3.38;1.40;;;;;;;7.18;100.00;97871.41;15340475;19;20018;-78
2022/10/01 01:28:57;;;;;;;3.45;1.50;;;;;;;7.13;100.00;97857.63;15307459;19;20376;-78
2022/10/01 01:34:25;;;;;;;2.67;1.40;;;;;;;7.07;100.00;97853.72;15312359;19;20010;-80
2022/10/01 01:40:01;;;;;;;2.65;1.50;;;;;;;7.06;100.00;97854.72;15314898;19;20021;-80
2022/10/01 01:45:32;;;;;;;2.67;1.70;;;;;;;7.08;100.00;97858.09;15304998;19;20331;-81
2022/10/01 01:51:02;;;;;;;3.10;1.63;;;;;;;7.12;100.00;97856.78;15310179;19;20033;-79
2022/10/01 01:56:27;;;;;;;2.92;1.67;;;;;;;7.14;100.00;97835.19;15302644;19;20010;-81
2022/10/01 02:01:55;;;;;;;2.63;1.40;;;;;;;7.19;100.00;97854.34;15309694;19;20031;-79
2022/10/01 02:07:33;;;;;;;1.90;1.40;;;;;;;7.21;100.00;97844.31;15326338;19;20006;-80
2022/10/01 02:13:12;;;;;;;3.50;1.60;;;;;;;7.21;100.00;97838.97;15298821;19;20022;-77
2022/10/01 02:18:49;;;;;;;2.60;1.63;;;;;;;7.19;100.00;97833.75;15301519;19;20022;-82
2022/10/01 02:24:22;;;;;;;2.60;1.65;;;;;;;7.18;100.00;97825.88;15302036;19;20015;-79
2022/10/01 02:29:50;;;;;;;3.70;1.63;;;;;;;7.18;100.00;97826.69;15305312;19;20022;-80
2022/10/01 02:35:21;;;;;;;2.53;1.80;;;;;;;7.14;100.00;97817.31;15296291;19;20024;-78
2022/10/01 02:40:48;;;;;;;2.15;1.73;;;;;;;7.12;100.00;97813.06;15302696;19;20033;-81
2022/10/01 02:46:20;;;;;;;2.83;1.85;;;;;;;7.09;100.00;97812.41;15319959;19;20455;-84
2022/10/01 02:51:55;;;;;;;2.85;1.95;;;;;;;7.08;100.00;97805.38;15328499;19;20014;-79
2022/10/01 02:57:26;;;;;;;2.72;2.10;;;;;;;7.14;100.00;97800.38;15323517;19;20074;-77
2022/10/01 03:02:51;;;;;;;4.40;2.28;;;;;;;7.21;100.00;97785.38;15304674;19;20086;-76
2022/10/01 03:08:27;;;;;;;2.42;2.22;;;;;;;7.28;100.00;97778.41;15305374;19;20020;-82
2022/10/01 03:19:20;;;;;;;2.55;2.30;;;;;;;7.38;100.00;97771.09;15304654;19;20010;-78
2022/10/01 03:24:47;;;;;;;4.82;2.90;;;;;;;7.45;100.00;97747.19;15295515;19;20018;-79
2022/10/01 03:30:13;;;;;;;4.07;2.72;;;;;;;7.49;100.00;97763.78;15299198;19;20032;-80
2022/10/01 03:35:38;;;;;;;4.55;2.70;;;;;;;7.56;100.00;97759.50;15294852;19;20014;-79
2022/10/01 03:41:06;;;;;;;3.58;2.80;;;;;;;7.63;100.00;97755.16;15294731;19;20022;-80
2022/10/01 03:46:30;;;;;;;4.18;2.80;;;;;;;7.67;100.00;97751.19;15296345;19;20030;-79
2022/10/01 03:51:56;;;;;;;3.28;2.63;;;;;;;7.70;100.00;97745.47;15315122;19;20058;-78
2022/10/01 03:57:23;;;;;;;5.10;2.90;;;;;;;7.72;100.00;97742.66;15301506;19;20044;-79
2022/10/01 04:02:48;;;;;;;3.40;2.80;;;;;;;7.71;100.00;97736.44;15304557;19;20033;-79
2022/10/01 04:08:20;;;;;;;3.92;3.10;;;;;;;7.72;100.00;97727.41;15303963;19;20018;-78
2022/10/01 04:13:48;;;;;;;4.38;3.33;;;;;;;7.74;100.00;97721.91;15288539;19;20022;-81
2022/10/01 04:19:12;;;;;;;4.68;3.90;;;;;;;7.72;100.00;97721.22;15297478;19;20033;-79
2022/10/01 04:24:36;;;;;;;4.25;3.75;;;;;;;7.74;100.00;97715.66;15284998;19;20014;-79
2022/10/01 04:30:07;;;;;;;8.73;3.70;;;;;;;7.72;100.00;97726.56;15288180;19;20297;-79
2022/10/01 04:35:32;;;;;;;4.18;3.60;;;;;;;7.75;100.00;97726.25;15283192;19;20014;-79
2022/10/01 04:40:56;;;;;;;4.82;3.90;;;;;;;7.79;100.00;97726.78;15291309;19;20457;-80
2022/10/01 04:46:23;;;;;;;4.07;3.35;;;;;;;7.81;100.00;97736.31;15287587;19;20018;-78
2022/10/01 04:51:48;;;;;;;4.55;3.20;;;;;;;7.81;100.00;97740.84;15294115;19;20120;-80
2022/10/01 04:57:13;;;;;;;4.22;3.83;;;;;;;7.82;100.00;97747.91;15291785;19;20625;-80
2022/10/01 05:02:42;;;;;;;4.07;3.42;;;;;;;7.82;100.00;97726.47;15300727;19;20650;-81
2022/10/01 05:08:09;;;;;;;4.50;3.50;;;;;;;7.83;100.00;97717.38;15306909;19;20021;-78
2022/10/01 05:13:34;;;;;;;4.50;3.67;;;;;;;7.85;100.00;97704.66;15310221;19;20036;-78
2022/10/01 05:19:02;;;;;;;6.25;3.65;;;;;;;7.89;100.00;97702.47;15328530;19;20035;-79
2022/10/01 05:24:28;;;;;;;4.38;3.97;;;;;;;7.95;100.00;97693.81;15354228;19;20337;-78
2022/10/01 05:29:52;;;;;;;6.88;4.10;;;;;;;8.07;100.00;97683.59;15305874;19;20017;-78
2022/10/01 05:35:20;;;;;;;5.15;4.05;;;;;;;8.21;100.00;97677.59;15299353;19;20398;-77
2022/10/01 05:40:47;;;;;;;4.55;3.88;;;;;;;8.35;100.00;97677.97;15305525;19;20030;-78
2022/10/01 05:46:14;;;;;;;6.82;4.00;;;;;;;8.46;100.00;97672.28;15298401;19;20358;-78
2022/10/01 05:51:41;;;;;;;5.00;4.00;;;;;;;8.55;100.00;97668.63;15312241;19;20022;-80
2022/10/01 05:57:10;;;;;;;4.65;3.97;;;;;;;8.60;100.00;97666.28;15333895;19;20010;-81
2022/10/01 06:02:34;;;;;;;4.90;3.80;;;;;;;8.63;100.00;97659.72;15361144;19;20060;-79
2022/10/01 06:08:02;;;;;;;5.45;3.67;;;;;;;8.67;100.00;97655.72;15299451;19;20047;-79
2022/10/01 06:13:27;;;;;;;4.20;3.65;;;;;;;8.67;100.00;97641.44;15303287;19;20014;-81
2022/10/01 06:18:56;;;;;;;3.90;3.50;;;;;;;8.71;100.00;97635.56;15306862;19;20086;-81
2022/10/01 06:24:24;;;;;;;3.90;3.20;;;;;;;8.70;100.00;97631.19;15301186;19;20022;-81
2022/10/01 06:29:48;;;;;;;3.72;3.40;;;;;;;8.73;100.00;97621.97;15304816;19;20038;-82
2022/10/01 06:35:13;;;;;;;4.22;3.30;;;;;;;8.77;100.00;97629.53;15301427;19;20018;-81
2022/10/01 06:40:42;;;;;;;3.72;3.30;;;;;;;8.81;100.00;97613.06;15302063;19;20039;-82
2022/10/01 06:46:08;;;;;;;5.40;3.55;;;;;;;8.84;100.00;97607.34;15304178;19;20042;-81
2022/10/01 06:57:13;;;;;;;3.00;2.70;;;;;;;9.00;100.00;97611.84;15311071;19;20015;-81
2022/10/01 07:02:38;;;;;;;3.20;2.63;;;;;;;9.08;100.00;97591.19;15307166;19;20086;-80
2022/10/01 07:08:09;;;;;;;2.80;2.58;;;;;;;9.14;100.00;97581.59;15306114;19;20031;-81
2022/10/01 07:13:36;;;;;;;3.33;2.50;;;;;;;9.24;100.00;97578.72;15306696;19;20078;-81
2022/10/01 07:19:01;;;;;;;3.42;2.20;;;;;;;9.33;100.00;97558.84;15302632;19;20022;-80
2022/10/01 07:24:26;;;;;;;3.15;2.10;;;;;;;9.43;100.00;97555.94;15297375;19;20090;-80
2022/10/01 07:29:57;;;;;;;2.65;1.77;;;;;;;9.50;100.00;97554.22;15298271;19;20018;-79
2022/10/01 07:35:23;;;;;;;2.30;1.97;;;;;;;9.60;100.00;97547.78;15295480;19;20006;-80
2022/10/01 07:40:48;;;;;;;3.67;1.90;;;;;;;9.68;100.00;97539.69;15302777;19;20022;-80
2022/10/01 07:46:15;;;;;;;2.08;1.67;;;;;;;9.76;100.00;97545.00;15297634;19;20022;-81
2022/10/01 07:51:42;;;;;;;2.70;1.73;;;;;;;9.80;100.00;97522.13;15295810;19;20010;-77
2022/10/01 07:57:07;;;;;;;3.13;1.40;;;;;;;9.87;100.00;97525.75;15295678;19;20031;-77
2022/10/01 08:02:35;;;;;;;1.85;1.52;;;;;;;9.87;100.00;97509.63;15290570;19;20325;-78
2022/10/01 08:08:07;;;;;;;1.50;1.40;;;;;;;9.86;100.00;97483.75;15298589;19;20496;-78
2022/10/01 08:13:33;;;;;;;1.73;1.40;;;;;;;9.92;100.00;97484.88;15297901;19;20015;-78
2022/10/01 08:19:01;;;;;;;1.15;1.02;;;;;;;10.00;100.00;97462.44;15300311;19;20077;-78
2022/10/01 08:24:26;;;;;;;1.13;1.02;;;;;;;10.05;100.00;97467.28;15290567;19;20381;-78
2022/10/01 08:29:50;;;;;;;1.27;1.00;;;;;;;10.07;100.00;97447.22;15297916;19;20039;-78
2022/10/01 08:35:19;;;;;;;2.10;1.38;;;;;;;10.05;100.00;97438.53;15337309;19;20069;-80
2022/10/01 08:40:49;;;;;;;1.00;0.90;;;;;;;9.98;100.00;97410.66;15324862;19;20018;-79
2022/10/01 08:46:17;;;;;;;0.90;0.80;;;;;;;9.88;100.00;97413.59;15296382;19;20007;-78
2022/10/01 08:51:53;;;;;;;0.93;0.70;;;;;;;9.79;100.00;97417.38;15305689;19;20091;-78
2022/10/01 08:57:21;;;;;;;0.90;0.70;;;;;;;9.74;100.00;97409.03;15299340;19;20097;-78
2022/10/01 09:02:48;;;;;;;1.63;0.65;;;;;;;9.66;100.00;97415.31;15297049;19;20649;-78
2022/10/01 09:08:42;;;;;;;0.80;0.80;;;;;;;9.58;100.00;97412.69;15301829;19;20018;-78
2022/10/01 09:14:30;;;;;;;0.70;0.70;;;;;;;9.52;100.00;97436.59;15297014;19;20014;-78
2022/10/01 09:20:03;;;;;;;0.60;0.60;;;;;;;9.50;100.00;97419.78;15295682;19;20018;-77
2022/10/01 09:25:32;;;;;;;0.60;0.60;;;;;;;9.50;100.00;97425.16;15294531;19;20010;-77
2022/10/01 09:31:02;;;;;;;0.98;0.60;;;;;;;9.49;100.00;97420.81;15296484;19;20025;-77
2022/10/01 09:36:34;;;;;;;2.15;0.82;;;;;;;9.49;100.00;97420.81;15293069;19;20046;-78
2022/10/01 09:42:02;;;;;;;0.60;0.60;;;;;;;9.52;100.00;97444.66;15301749;19;20017;-77
2022/10/01 09:47:28;;;;;;;0.70;0.63;;;;;;;9.54;100.00;97421.13;15305036;19;20040;-77
2022/10/01 09:52:54;;;;;;;0.77;0.57;;;;;;;9.62;100.00;97427.44;15302880;19;20541;-79
2022/10/01 09:58:25;;;;;;;0.70;0.70;;;;;;;9.66;100.00;97450.28;15303544;19;20125;-79
2022/10/01 10:03:58;;;;;;;0.50;0.50;;;;;;;9.70;100.00;97440.84;15307284;19;20018;-79
2022/10/01 10:09:37;;;;;;;3.03;0.80;;;;;;;9.76;100.00;97450.03;15302375;19;20026;-80
2022/10/01 10:15:12;;;;;;;0.43;0.43;;;;;;;9.81;100.00;97445.78;15301159;19;20082;-79
2022/10/01 10:20:40;;;;;;;1.65;0.60;;;;;;;9.87;100.00;97463.06;15305811;19;20010;-79
2022/10/01 10:26:08;;;;;;;0.55;0.55;;;;;;;9.93;100.00;97462.34;15321112;19;20034;-79
2022/10/01 10:31:38;;;;;;;0.60;0.52;;;;;;;9.99;100.00;97463.47;15346114;19;20014;-80
2022/10/01 10:37:08;;;;;;;0.40;0.40;;;;;;;9.95;100.00;97452.22;15302878;19;20078;-80
2022/10/01 10:42:37;;;;;;;0.57;0.52;;;;;;;9.97;100.00;97452.88;15311347;19;20017;-79
2022/10/01 10:48:08;;;;;;;0.43;0.30;;;;;;;9.86;100.00;97456.00;15301170;19;20014;-80
2022/10/01 10:53:36;;;;;;;0.30;0.30;;;;;;;9.79;100.00;97468.50;15298512;19;20039;-80
2022/10/01 10:59:09;;;;;;;0.43;0.43;;;;;;;9.74;100.00;97471.72;15297390;19;20047;-80
2022/10/01 11:04:46;;;;;;;1.58;0.60;;;;;;;9.67;100.00;97474.28;15301631;19;20093;-80
2022/10/01 11:10:32;;;;;;;0.50;0.50;;;;;;;9.65;100.00;97480.88;15302270;19;20081;-79
2022/10/01 11:16:12;;;;;;;0.63;0.50;;;;;;;9.60;100.00;97467.13;15291109;19;20432;-80
2022/10/01 11:21:53;;;;;;;0.53;0.50;;;;;;;9.55;100.00;97455.06;15295330;19;20027;-79
2022/10/01 11:27:26;;;;;;;0.73;0.40;;;;;;;9.61;100.00;97466.09;15289526;19;20014;-79
2022/10/01 11:33:02;;;;;;;0.38;0.38;;;;;;;9.62;100.00;97475.84;15292010;19;20074;-80
2022/10/01 11:38:46;;;;;;;0.68;0.50;;;;;;;9.65;100.00;97473.63;15302179;19;20014;-79
2022/10/01 11:44:17;;;;;;;0.50;0.40;;;;;;;9.66;100.00;97467.25;15298292;19;20030;-78
2022/10/01 12:01:12;;;;;;;0.30;0.30;;;;;;;9.91;100.00;97460.84;15292473;19;20809;-79
2022/10/01 12:06:42;;;;;;;0.30;0.30;;;;;;;10.03;100.00;97452.16;15291488;19;20743;-78
2022/10/01 12:12:15;;;;;;;0.20;0.20;;;;;;;10.14;100.00;97458.97;15308888;19;20029;-78
2022/10/01 12:17:46;;;;;;;0.68;0.20;;;;;;;10.38;100.00;97442.78;15312527;19;20382;-79
2022/10/01 12:23:16;;;;;;;0.10;0.10;;;;;;;10.62;100.00;97430.91;15319040;19;20021;-80
2022/10/01 12:28:49;;;;;;;0.10;0.10;;;;;;;10.86;100.00;97439.72;15321427;19;20503;-78
2022/10/01 12:34:27;;;;;;;0.17;0.17;;;;;;;11.17;100.00;97419.78;15304661;19;20378;-79
2022/10/01 12:40:07;;;;;;;0.20;0.20;;;;;;;11.33;100.00;97451.91;15314386;19;20047;-79
2022/10/01 12:45:45;;;;;;;0.10;0.10;;;;;;;11.32;100.00;97428.66;15309420;19;20019;-77
2022/10/01 12:51:26;;;;;;;0.32;0.13;;;;;;;11.37;100.00;97425.38;15313458;19;20356;-79
2022/10/01 12:57:02;;;;;;;0.10;0.10;;;;;;;11.33;100.00;97424.09;15298625;19;20495;-77
2022/10/01 13:02:56;;;;;;;0.13;0.10;;;;;;;11.34;100.00;97437.41;15304481;19;20055;-78
2022/10/01 13:08:44;;;;;;;2.17;0.30;;;;;;;11.33;100.00;97437.56;15302776;19;20082;-80
2022/10/01 13:14:09;;;;;;;0.25;0.20;;;;;;;11.34;100.00;97445.50;15300468;19;20011;-79
2022/10/01 13:19:46;;;;;;;0.50;0.20;;;;;;;11.28;100.00;97445.41;15302082;19;20048;-80
2022/10/01 13:25:28;;;;;;;0.30;0.17;;;;;;;11.29;100.00;97447.09;15300339;19;20002;-79
2022/10/01 13:31:00;;;;;;;0.20;0.20;;;;;;;11.35;100.00;97449.84;15303742;19;20015;-80
2022/10/01 13:36:37;;;;;;;0.17;0.10;;;;;;;11.34;100.00;97458.97;15301320;19;20972;-80
2022/10/01 13:42:07;;;;;;;0.40;0.20;;;;;;;11.35;100.00;97470.59;15291817;19;20010;-78
2022/10/01 13:47:32;;;;;;;0.13;0.13;;;;;;;11.41;100.00;97476.06;15354564;19;20014;-78
2022/10/01 13:53:16;;;;;;;0.25;0.20;;;;;;;11.38;100.00;97475.59;15351006;19;20014;-80
2022/10/01 13:58:44;;;;;;;0.30;0.17;;;;;;;11.43;100.00;97472.34;15312424;19;20050;-82
2022/10/01 14:04:21;;;;;;;0.20;0.17;;;;;;;11.49;100.00;97482.34;15309536;19;20094;-82
2022/10/01 14:09:52;;;;;;;0.30;0.20;;;;;;;11.55;100.00;97487.00;15364270;19;20864;-79
2022/10/01 14:21:04;;;;;;;0.32;0.30;;;;;;;11.56;100.00;97489.50;15300030;19;20028;-84
2022/10/01 14:26:37;;;;;;;0.65;0.20;;;;;;;11.56;100.00;97491.38;15298332;19;20022;-80
2022/10/01 14:32:11;;;;;;;1.10;0.25;;;;;;;11.57;100.00;97479.56;15300104;19;20018;-81
2022/10/01 14:37:39;;;;;;;0.60;0.20;;;;;;;11.59;100.00;97485.56;15305104;19;20441;-80
2022/10/01 14:43:11;;;;;;;0.30;0.22;;;;;;;11.64;100.00;97480.44;15297139;19;20015;-82
2022/10/01 14:48:39;;;;;;;0.40;0.20;;;;;;;11.69;100.00;97477.16;15296885;19;20007;-81
2022/10/01 14:54:07;;;;;;;0.20;0.17;;;;;;;11.79;100.00;97482.25;15300923;19;20021;-80
2022/10/01 14:59:38;;;;;;;1.98;0.20;;;;;;;11.87;100.00;97480.28;15297075;19;20010;-79
2022/10/01 15:05:05;;;;;;;0.38;0.30;;;;;;;12.00;100.00;97474.19;15296665;19;20006;-82
2022/10/01 15:10:36;;;;;;;0.57;0.20;;;;;;;12.05;100.00;97476.31;15304720;19;20447;-80
2022/10/01 15:16:19;;;;;;;4.30;0.25;;;;;;;12.08;100.00;97467.81;15296605;19;20018;-80
2022/10/01 15:21:50;;;;;;;0.10;0.10;;;;;;;12.06;100.00;97477.97;15305030;19;20035;-80
2022/10/01 15:27:16;;;;;;;0.20;0.20;;;;;;;12.08;100.00;97480.47;15298678;19;20477;-80
2022/10/01 15:32:44;;;;;;;0.50;0.10;;;;;;;12.13;100.00;97481.56;15295791;19;20029;-80
2022/10/01 15:38:08;;;;;;;0.32;0.13;;;;;;;12.26;100.00;97480.84;15301603;19;20015;-79
2022/10/01 15:43:37;;;;;;;0.30;0.20;;;;;;;12.20;100.00;97495.13;15294622;19;20019;-79
2022/10/01 15:49:24;;;;;;;0.40;0.20;;;;;;;12.17;100.00;97506.31;15290698;19;20018;-79
2022/10/01 15:55:00;;;;;;;0.60;0.30;;;;;;;12.22;100.00;97514.66;15298593;19;20050;-80
2022/10/01 16:00:33;;;;;;;0.45;0.20;;;;;;;12.31;100.00;97524.28;15291754;19;20014;-79
2022/10/01 16:06:03;;;;;;;0.68;0.20;;;;;;;12.57;100.00;97527.44;15288943;19;20826;-79
2022/10/01 16:11:30;;;;;;;0.75;0.38;;;;;;;12.60;100.00;97532.41;15297050;19;20007;-79
2022/10/01 16:17:28;;;;;;;1.08;0.40;;;;;;;12.52;100.00;97541.53;15268136;19;20007;-77
2022/10/01 16:22:55;;;;;;;0.55;0.40;;;;;;;12.44;100.00;97545.19;15295829;19;20042;-80
2022/10/01 16:28:29;;;;;;;0.65;0.38;;;;;;;12.33;100.00;97551.94;15298542;19;20444;-79
2022/10/01 16:33:53;;;;;;;0.98;0.40;;;;;;;12.30;100.00;97563.13;15294176;19;20015;-79
2022/10/01 16:39:21;;;;;;;1.05;0.40;;;;;;;12.26;100.00;97577.22;15303573;19;20022;-78
2022/10/01 16:44:47;;;;;;;0.45;0.35;;;;;;;12.24;100.00;97580.13;15299549;19;20024;-79
2022/10/01 16:50:14;;;;;;;0.70;0.35;;;;;;;12.21;100.00;97599.41;15289102;19;20018;-78
2022/10/01 16:55:44;;;;;;;3.35;0.80;;;;;;;12.05;100.00;97637.47;15291746;19;20041;-81
2022/10/01 17:01:10;;;;;;;1.90;0.80;;;;;;;11.86;100.00;97653.19;15306175;19;20094;-78
2022/10/01 17:06:34;;;;;;;1.90;0.50;;;;;;;11.71;100.00;97664.81;15295178;19;20026;-80
2022/10/01 17:12:02;;;;;;;0.50;0.40;;;;;;;11.66;100.00;97661.00;15294947;19;20033;-79
2022/10/01 17:17:26;;;;;;;2.08;0.50;;;;;;;11.53;100.00;97664.38;15299451;19;20026;-78
2022/10/01 17:22:53;;;;;;;1.20;0.60;;;;;;;11.41;100.00;97681.00;15292108;19;20015;-79
2022/10/01 17:33:45;;;;;;;2.40;0.68;;;;;;;11.18;100.00;97702.63;15343861;19;20019;-80
2022/10/01 17:39:10;;;;;;;1.35;0.60;;;;;;;11.08;100.00;97712.84;15314950;19;20047;-79
2022/10/01 17:44:35;;;;;;;1.42;0.60;;;;;;;10.99;100.00;97739.06;15299435;19;20011;-80
2022/10/01 17:50:02;;;;;;;1.17;0.60;;;;;;;10.93;100.00;97742.44;15300361;19;20032;-80
2022/10/01 17:55:27;;;;;;;3.45;0.80;;;;;;;10.89;100.00;97749.22;15294031;19;20038;-82
2022/10/01 18:00:52;;;;;;;1.75;0.50;;;;;;;10.83;100.00;97764.25;15307010;19;20367;-83
2022/10/01 18:06:21;;;;;;;2.53;0.65;;;;;;;10.76;100.00;97774.06;15308859;19;20034;-83
2022/10/01 18:11:46;;;;;;;1.08;0.60;;;;;;;10.72;100.00;97778.13;15314625;19;20015;-85
2022/10/01 18:17:11;;;;;;;1.80;0.80;;;;;;;10.68;100.00;97793.81;15315603;19;20031;-83
2022/10/01 18:22:39;;;;;;;1.30;0.70;;;;;;;10.71;100.00;97800.69;15316948;19;20018;-80
2022/10/01 18:28:04;;;;;;;1.02;0.70;;;;;;;10.73;100.00;97813.00;15312166;19;20059;-84
2022/10/01 18:33:29;;;;;;;1.17;0.70;;;;;;;10.78;100.00;97834.00;15313972;19;20546;-83
2022/10/01 18:39:05;;;;;;;1.33;0.80;;;;;;;10.81;100.00;97830.97;15314938;19;20021;-80
2022/10/01 18:44:31;;;;;;;1.83;0.70;;;;;;;10.84;100.00;97845.94;15313219;19;20387;-83
2022/10/01 18:50:11;;;;;;;2.33;0.80;;;;;;;10.82;100.00;97842.56;15309511;19;20629;-81
2022/10/01 18:55:56;;;;;;;1.60;0.70;;;;;;;10.84;100.00;97830.59;15313619;19;20074;-81
2022/10/01 19:01:31;;;;;;;2.88;0.80;;;;;;;10.89;100.00;97833.59;15311065;19;20024;-82
2022/10/01 19:07:04;;;;;;;2.55;0.80;;;;;;;10.89;100.00;97847.06;15325584;19;20033;-84
2022/10/01 19:12:45;;;;;;;2.55;1.00;;;;;;;10.88;100.00;97845.41;15329704;19;20054;-83
2022/10/01 19:18:40;;;;;;;2.70;0.90;;;;;;;10.88;100.00;97855.31;15321376;19;20014;-81
2022/10/01 19:24:33;;;;;;;1.80;0.63;;;;;;;10.83;100.00;97855.84;15301982;19;20010;-83
2022/10/01 19:30:10;;;;;;;1.45;0.73;;;;;;;10.81;100.00;97870.53;15298818;19;20017;-82
2022/10/01 19:35:39;;;;;;;1.77;0.80;;;;;;;10.92;100.00;97881.75;15296375;19;20007;-77
2022/10/01 19:41:07;;;;;;;2.33;0.80;;;;;;;11.01;100.00;97879.84;15296214;19;20014;-77
2022/10/01 19:46:44;;;;;;;1.67;0.75;;;;;;;11.04;100.00;97884.88;15294221;19;20015;-80
2022/10/01 19:52:17;;;;;;;2.15;0.88;;;;;;;11.09;100.00;97898.69;15295107;19;20471;-78
2022/10/01 19:57:42;;;;;;;1.42;0.60;;;;;;;11.08;100.00;97905.09;15290332;19;20369;-77
2022/10/01 20:03:13;;;;;;;1.25;0.60;;;;;;;11.03;100.00;97920.09;15284098;19;20437;-77
2022/10/01 20:08:42;;;;;;;2.30;0.80;;;;;;;10.96;100.00;97922.66;15292632;19;20356;-75
2022/10/01 20:20:11;;;;;;;1.83;0.70;;;;;;;10.88;100.00;97950.50;15297331;19;20039;-79
2022/10/01 20:25:43;;;;;;;4.47;0.88;;;;;;;10.85;100.00;97947.31;15296567;19;20018;-80
2022/10/01 20:31:19;;;;;;;2.22;0.80;;;;;;;10.70;100.00;97952.59;15311169;19;20383;-77
2022/10/01 20:36:51;;;;;;;2.28;0.88;;;;;;;10.64;100.00;97962.22;15313023;19;20088;-82
2022/10/01 20:42:26;;;;;;;2.53;0.82;;;;;;;10.56;100.00;97981.06;15331210;19;20006;-80
2022/10/01 20:48:06;;;;;;;2.10;0.90;;;;;;;10.49;100.00;97978.22;15334435;19;20010;-79
2022/10/01 20:53:54;;;;;;;2.05;0.77;;;;;;;10.38;100.00;97981.28;15330665;19;20014;-79
2022/10/01 20:59:36;;;;;;;2.85;0.95;;;;;;;10.26;100.00;97991.53;15309743;19;20549;-78
2022/10/01 21:05:07;;;;;;;3.75;0.93;;;;;;;10.20;100.00;97994.91;15308439;19;20022;-50
2022/10/01 21:10:44;;;;;;;3.00;1.05;;;;;;;10.11;100.00;98008.38;15305422;19;20081;-47
2022/10/01 21:16:23;;;;;;;2.30;0.90;;;;;;;10.07;100.00;98006.19;15303924;19;20349;-50
2022/10/01 21:22:06;;;;;;;5.63;1.00;;;;;;;10.06;100.00;98023.34;15309703;19;20029;-47
2022/10/01 21:27:49;;;;;;;3.92;1.10;;;;;;;9.99;100.00;98031.25;15305285;19;20730;-49
2022/10/01 21:33:23;;;;;;;3.30;1.10;;;;;;;10.04;100.00;98050.44;15307928;19;20364;-51
